Hazel Park, Michigan
Current Conditions -  °F | °C
As of 6:53 PM on Friday 24 Oct 2014 (Local Time) from KDET Reporting Station
Broken Clouds Broken Clouds  
Wind Chill: 59°   Ceiling: 4000
Heat Index: 59°   Visibility: 10mi
Dew Point: 44°   Wind: 9mph
Humidity: 58%   Direction: 230°SW
Pressure: 29.98"   Gusts: NA
Location:  42.46°N, 83.1°W
Report Text: KDET 242253Z 23008KT 10SM BKN040 15/07 A2998 RMK AO2 SLP154 T01500067
Loading
Personal Weather Stations






























Interactive Weather Map
Tropical Storm Tracking
New forecast layout! Learn more

10-Day Weather Forecast

Advertisements
Track Severe Weather on mobile